sensor_id;sensor_type;location;lat;lon;timestamp;P1;durP1;ratioP1;P2;durP2;ratioP2
2293;SDS011;1155;42.644;23.264;2023-05-10T00:01:08;7.10;;;6.17;;
2293;SDS011;1155;42.644;23.264;2023-05-10T00:03:35;7.60;;;6.90;;
2293;SDS011;1155;42.644;23.264;2023-05-10T00:06:02;6.83;;;5.90;;
2293;SDS011;1155;42.644;23.264;2023-05-10T00:08:35;7.93;;;6.53;;
2293;SDS011;1155;42.644;23.264;2023-05-10T00:11:02;7.73;;;7.03;;
2293;SDS011;1155;42.644;23.264;2023-05-10T00:13:28;6.30;;;5.63;;
2293;SDS011;1155;42.644;23.264;2023-05-10T00:15:57;8.47;;;7.63;;
2293;SDS011;1155;42.644;23.264;2023-05-10T00:18:25;7.10;;;6.40;;
2293;SDS011;1155;42.644;23.264;2023-05-10T00:20:53;7.23;;;6.53;;
2293;SDS011;1155;42.644;23.264;2023-05-10T00:23:23;6.93;;;6.07;;
2293;SDS011;1155;42.644;23.264;2023-05-10T00:25:50;7.30;;;6.30;;
2293;SDS011;1155;42.644;23.264;2023-05-10T00:28:17;8.70;;;7.80;;
2293;SDS011;1155;42.644;23.264;2023-05-10T00:30:45;9.33;;;7.53;;
2293;SDS011;1155;42.644;23.264;2023-05-10T00:33:12;8.50;;;7.00;;
2293;SDS011;1155;42.644;23.264;2023-05-10T00:35:41;8.20;;;7.00;;
2293;SDS011;1155;42.644;23.264;2023-05-10T00:38:07;7.13;;;6.43;;
2293;SDS011;1155;42.644;23.264;2023-05-10T00:40:35;9.17;;;8.20;;
2293;SDS011;1155;42.644;23.264;2023-05-10T00:43:02;8.03;;;6.90;;
2293;SDS011;1155;42.644;23.264;2023-05-10T00:45:29;8.77;;;7.40;;
2293;SDS011;1155;42.644;23.264;2023-05-10T00:47:56;7.40;;;6.67;;
2293;SDS011;1155;42.644;23.264;2023-05-10T00:50:28;7.13;;;6.53;;
2293;SDS011;1155;42.644;23.264;2023-05-10T00:52:57;7.40;;;6.70;;
2293;SDS011;1155;42.644;23.264;2023-05-10T00:55:25;8.27;;;7.57;;
2293;SDS011;1155;42.644;23.264;2023-05-10T00:57:52;6.83;;;6.13;;
2293;SDS011;1155;42.644;23.264;2023-05-10T01:00:22;7.07;;;6.37;;
2293;SDS011;1155;42.644;23.264;2023-05-10T01:02:49;9.70;;;7.23;;
2293;SDS011;1155;42.644;23.264;2023-05-10T01:05:16;6.90;;;6.20;;
2293;SDS011;1155;42.644;23.264;2023-05-10T01:07:43;6.77;;;6.07;;
2293;SDS011;1155;42.644;23.264;2023-05-10T01:10:11;5.77;;;5.23;;
2293;SDS011;1155;42.644;23.264;2023-05-10T01:12:40;8.30;;;6.47;;
2293;SDS011;1155;42.644;23.264;2023-05-10T01:15:16;7.20;;;6.57;;
2293;SDS011;1155;42.644;23.264;2023-05-10T01:17:44;7.60;;;6.80;;
2293;SDS011;1155;42.644;23.264;2023-05-10T01:20:13;7.13;;;6.50;;
2293;SDS011;1155;42.644;23.264;2023-05-10T01:22:46;6.60;;;5.97;;
2293;SDS011;1155;42.644;23.264;2023-05-10T01:25:40;8.97;;;5.80;;
2293;SDS011;1155;42.644;23.264;2023-05-10T01:28:27;5.03;;;4.57;;
2293;SDS011;1155;42.644;23.264;2023-05-10T01:31:18;5.40;;;4.90;;
2293;SDS011;1155;42.644;23.264;2023-05-10T01:33:57;5.83;;;4.53;;
2293;SDS011;1155;42.644;23.264;2023-05-10T01:36:27;6.23;;;5.27;;
2293;SDS011;1155;42.644;23.264;2023-05-10T01:38:58;4.93;;;4.30;;
2293;SDS011;1155;42.644;23.264;2023-05-10T01:41:36;6.07;;;5.57;;
2293;SDS011;1155;42.644;23.264;2023-05-10T01:44:17;5.47;;;4.97;;
2293;SDS011;1155;42.644;23.264;2023-05-10T01:46:57;5.37;;;4.90;;
2293;SDS011;1155;42.644;23.264;2023-05-10T01:49:34;5.23;;;4.73;;
2293;SDS011;1155;42.644;23.264;2023-05-10T01:52:09;4.67;;;4.27;;
2293;SDS011;1155;42.644;23.264;2023-05-10T01:54:43;5.30;;;4.80;;
2293;SDS011;1155;42.644;23.264;2023-05-10T01:57:15;3.83;;;3.53;;
2293;SDS011;1155;42.644;23.264;2023-05-10T01:59:45;6.57;;;5.87;;
2293;SDS011;1155;42.644;23.264;2023-05-10T02:02:23;7.90;;;4.90;;
2293;SDS011;1155;42.644;23.264;2023-05-10T02:04:53;4.30;;;3.87;;
2293;SDS011;1155;42.644;23.264;2023-05-10T02:07:22;5.30;;;4.10;;
2293;SDS011;1155;42.644;23.264;2023-05-10T02:09:50;4.87;;;4.47;;
2293;SDS011;1155;42.644;23.264;2023-05-10T02:12:19;5.40;;;4.90;;
2293;SDS011;1155;42.644;23.264;2023-05-10T02:14:49;4.23;;;3.83;;
2293;SDS011;1155;42.644;23.264;2023-05-10T02:17:17;6.47;;;4.17;;
2293;SDS011;1155;42.644;23.264;2023-05-10T02:19:46;5.30;;;4.77;;
2293;SDS011;1155;42.644;23.264;2023-05-10T02:22:15;4.40;;;4.10;;
2293;SDS011;1155;42.644;23.264;2023-05-10T02:24:43;4.73;;;4.37;;
2293;SDS011;1155;42.644;23.264;2023-05-10T02:27:12;4.77;;;4.30;;
2293;SDS011;1155;42.644;23.264;2023-05-10T02:29:44;4.30;;;3.90;;
2293;SDS011;1155;42.644;23.264;2023-05-10T02:32:11;4.53;;;4.13;;
2293;SDS011;1155;42.644;23.264;2023-05-10T02:34:39;4.20;;;3.87;;
2293;SDS011;1155;42.644;23.264;2023-05-10T02:37:10;4.07;;;3.53;;
2293;SDS011;1155;42.644;23.264;2023-05-10T02:39:39;5.37;;;3.47;;
2293;SDS011;1155;42.644;23.264;2023-05-10T02:42:09;6.40;;;4.30;;
2293;SDS011;1155;42.644;23.264;2023-05-10T02:44:43;5.60;;;5.07;;
2293;SDS011;1155;42.644;23.264;2023-05-10T02:47:14;6.20;;;5.40;;
2293;SDS011;1155;42.644;23.264;2023-05-10T02:49:41;8.63;;;3.63;;
2293;SDS011;1155;42.644;23.264;2023-05-10T02:52:09;5.03;;;3.80;;
2293;SDS011;1155;42.644;23.264;2023-05-10T02:54:39;4.90;;;3.60;;
2293;SDS011;1155;42.644;23.264;2023-05-10T02:57:11;4.70;;;4.30;;
2293;SDS011;1155;42.644;23.264;2023-05-10T02:59:43;5.77;;;4.50;;
2293;SDS011;1155;42.644;23.264;2023-05-10T03:02:10;4.87;;;4.07;;
2293;SDS011;1155;42.644;23.264;2023-05-10T03:04:38;5.47;;;4.90;;
2293;SDS011;1155;42.644;23.264;2023-05-10T03:07:05;5.90;;;4.60;;
2293;SDS011;1155;42.644;23.264;2023-05-10T03:09:33;4.43;;;4.03;;
2293;SDS011;1155;42.644;23.264;2023-05-10T03:12:02;5.83;;;5.17;;
2293;SDS011;1155;42.644;23.264;2023-05-10T03:14:41;5.20;;;4.60;;
2293;SDS011;1155;42.644;23.264;2023-05-10T03:17:15;4.93;;;4.43;;
2293;SDS011;1155;42.644;23.264;2023-05-10T03:19:53;4.40;;;3.93;;
2293;SDS011;1155;42.644;23.264;2023-05-10T03:22:23;7.30;;;4.60;;
2293;SDS011;1155;42.644;23.264;2023-05-10T03:24:53;5.10;;;4.60;;
2293;SDS011;1155;42.644;23.264;2023-05-10T03:27:24;4.77;;;4.37;;
2293;SDS011;1155;42.644;23.264;2023-05-10T03:29:53;4.77;;;4.37;;
2293;SDS011;1155;42.644;23.264;2023-05-10T03:32:22;5.10;;;4.33;;
2293;SDS011;1155;42.644;23.264;2023-05-10T03:34:49;4.93;;;4.53;;
2293;SDS011;1155;42.644;23.264;2023-05-10T03:37:16;4.70;;;4.30;;
2293;SDS011;1155;42.644;23.264;2023-05-10T03:39:42;5.00;;;4.60;;
2293;SDS011;1155;42.644;23.264;2023-05-10T03:42:10;5.13;;;4.63;;
2293;SDS011;1155;42.644;23.264;2023-05-10T03:44:38;5.10;;;4.60;;
2293;SDS011;1155;42.644;23.264;2023-05-10T03:47:05;5.93;;;5.43;;
2293;SDS011;1155;42.644;23.264;2023-05-10T03:49:33;5.30;;;4.80;;
2293;SDS011;1155;42.644;23.264;2023-05-10T03:52:00;7.50;;;5.20;;
2293;SDS011;1155;42.644;23.264;2023-05-10T03:54:27;6.80;;;4.93;;
2293;SDS011;1155;42.644;23.264;2023-05-10T03:56:54;5.80;;;5.30;;
2293;SDS011;1155;42.644;23.264;2023-05-10T03:59:21;6.77;;;4.67;;
2293;SDS011;1155;42.644;23.264;2023-05-10T04:01:49;6.77;;;6.07;;
2293;SDS011;1155;42.644;23.264;2023-05-10T04:04:16;6.70;;;6.00;;
2293;SDS011;1155;42.644;23.264;2023-05-10T04:06:43;6.33;;;5.70;;
2293;SDS011;1155;42.644;23.264;2023-05-10T04:09:10;6.33;;;5.73;;
2293;SDS011;1155;42.644;23.264;2023-05-10T04:11:37;11.10;;;6.13;;
2293;SDS011;1155;42.644;23.264;2023-05-10T04:14:04;5.90;;;5.33;;
2293;SDS011;1155;42.644;23.264;2023-05-10T04:16:31;6.87;;;5.00;;
2293;SDS011;1155;42.644;23.264;2023-05-10T04:18:59;6.93;;;5.70;;
2293;SDS011;1155;42.644;23.264;2023-05-10T04:21:26;9.20;;;5.60;;
2293;SDS011;1155;42.644;23.264;2023-05-10T04:23:55;7.97;;;6.03;;
2293;SDS011;1155;42.644;23.264;2023-05-10T04:26:26;5.67;;;5.17;;
2293;SDS011;1155;42.644;23.264;2023-05-10T04:28:53;7.80;;;6.10;;
2293;SDS011;1155;42.644;23.264;2023-05-10T04:31:20;5.83;;;5.37;;
2293;SDS011;1155;42.644;23.264;2023-05-10T04:33:47;6.33;;;5.60;;
2293;SDS011;1155;42.644;23.264;2023-05-10T04:36:16;7.40;;;6.30;;
2293;SDS011;1155;42.644;23.264;2023-05-10T04:38:43;7.80;;;6.20;;
2293;SDS011;1155;42.644;23.264;2023-05-10T04:41:10;7.77;;;6.97;;
2293;SDS011;1155;42.644;23.264;2023-05-10T04:43:38;6.37;;;5.77;;
2293;SDS011;1155;42.644;23.264;2023-05-10T04:46:05;10.30;;;6.13;;
2293;SDS011;1155;42.644;23.264;2023-05-10T04:48:32;7.00;;;6.40;;
2293;SDS011;1155;42.644;23.264;2023-05-10T04:50:59;7.70;;;6.70;;
2293;SDS011;1155;42.644;23.264;2023-05-10T04:53:28;7.07;;;6.20;;
2293;SDS011;1155;42.644;23.264;2023-05-10T04:55:54;6.90;;;6.20;;
2293;SDS011;1155;42.644;23.264;2023-05-10T04:58:21;7.70;;;6.90;;
2293;SDS011;1155;42.644;23.264;2023-05-10T05:00:48;7.30;;;6.40;;
2293;SDS011;1155;42.644;23.264;2023-05-10T05:03:15;6.67;;;6.03;;
2293;SDS011;1155;42.644;23.264;2023-05-10T05:05:44;6.80;;;6.10;;
2293;SDS011;1155;42.644;23.264;2023-05-10T05:08:11;7.60;;;6.90;;
2293;SDS011;1155;42.644;23.264;2023-05-10T05:10:40;6.23;;;5.40;;
2293;SDS011;1155;42.644;23.264;2023-05-10T05:13:07;7.70;;;6.37;;
2293;SDS011;1155;42.644;23.264;2023-05-10T05:15:34;7.70;;;7.00;;
2293;SDS011;1155;42.644;23.264;2023-05-10T05:18:00;5.60;;;4.73;;
2293;SDS011;1155;42.644;23.264;2023-05-10T05:20:27;5.67;;;5.17;;
2293;SDS011;1155;42.644;23.264;2023-05-10T05:22:57;5.60;;;4.90;;
2293;SDS011;1155;42.644;23.264;2023-05-10T05:25:24;7.00;;;6.33;;
2293;SDS011;1155;42.644;23.264;2023-05-10T05:27:52;6.07;;;5.47;;
2293;SDS011;1155;42.644;23.264;2023-05-10T05:30:22;15.53;;;5.80;;
2293;SDS011;1155;42.644;23.264;2023-05-10T05:32:49;6.60;;;5.80;;
2293;SDS011;1155;42.644;23.264;2023-05-10T05:35:16;5.80;;;5.30;;
2293;SDS011;1155;42.644;23.264;2023-05-10T05:37:43;6.73;;;6.10;;
2293;SDS011;1155;42.644;23.264;2023-05-10T05:40:15;6.30;;;5.70;;
2293;SDS011;1155;42.644;23.264;2023-05-10T05:42:42;5.37;;;4.90;;
2293;SDS011;1155;42.644;23.264;2023-05-10T05:45:11;6.03;;;5.43;;
2293;SDS011;1155;42.644;23.264;2023-05-10T05:47:39;7.90;;;5.50;;
2293;SDS011;1155;42.644;23.264;2023-05-10T05:50:08;7.47;;;6.10;;
2293;SDS011;1155;42.644;23.264;2023-05-10T05:52:36;8.20;;;6.73;;
2293;SDS011;1155;42.644;23.264;2023-05-10T05:55:03;7.20;;;6.47;;
2293;SDS011;1155;42.644;23.264;2023-05-10T05:57:30;10.23;;;7.67;;
2293;SDS011;1155;42.644;23.264;2023-05-10T05:59:57;7.00;;;6.23;;
2293;SDS011;1155;42.644;23.264;2023-05-10T06:02:26;10.57;;;7.80;;
2293;SDS011;1155;42.644;23.264;2023-05-10T06:04:55;7.37;;;6.67;;
2293;SDS011;1155;42.644;23.264;2023-05-10T06:07:24;7.73;;;6.93;;
2293;SDS011;1155;42.644;23.264;2023-05-10T06:09:51;9.30;;;8.00;;
2293;SDS011;1155;42.644;23.264;2023-05-10T06:12:18;8.50;;;6.63;;
2293;SDS011;1155;42.644;23.264;2023-05-10T06:14:45;11.07;;;9.70;;
2293;SDS011;1155;42.644;23.264;2023-05-10T06:17:12;8.33;;;7.23;;
2293;SDS011;1155;42.644;23.264;2023-05-10T06:19:49;9.07;;;7.87;;
2293;SDS011;1155;42.644;23.264;2023-05-10T06:22:16;10.47;;;7.97;;
2293;SDS011;1155;42.644;23.264;2023-05-10T06:24:42;8.43;;;7.30;;
2293;SDS011;1155;42.644;23.264;2023-05-10T06:27:09;10.90;;;8.00;;
2293;SDS011;1155;42.644;23.264;2023-05-10T06:29:39;10.73;;;8.90;;
2293;SDS011;1155;42.644;23.264;2023-05-10T06:32:09;10.50;;;8.90;;
2293;SDS011;1155;42.644;23.264;2023-05-10T06:34:36;9.70;;;7.40;;
2293;SDS011;1155;42.644;23.264;2023-05-10T06:37:05;12.30;;;9.27;;
2293;SDS011;1155;42.644;23.264;2023-05-10T06:39:32;8.97;;;8.07;;
2293;SDS011;1155;42.644;23.264;2023-05-10T06:41:58;12.90;;;8.60;;
2293;SDS011;1155;42.644;23.264;2023-05-10T06:44:26;9.50;;;7.80;;
2293;SDS011;1155;42.644;23.264;2023-05-10T06:46:54;12.10;;;7.80;;
2293;SDS011;1155;42.644;23.264;2023-05-10T06:49:25;10.73;;;7.93;;
2293;SDS011;1155;42.644;23.264;2023-05-10T06:51:52;12.37;;;9.17;;
2293;SDS011;1155;42.644;23.264;2023-05-10T06:54:20;8.20;;;7.50;;
2293;SDS011;1155;42.644;23.264;2023-05-10T06:56:48;11.53;;;9.17;;
2293;SDS011;1155;42.644;23.264;2023-05-10T06:59:15;9.03;;;7.60;;
2293;SDS011;1155;42.644;23.264;2023-05-10T07:01:44;9.30;;;8.23;;
2293;SDS011;1155;42.644;23.264;2023-05-10T07:04:13;10.47;;;8.57;;
2293;SDS011;1155;42.644;23.264;2023-05-10T07:06:44;10.00;;;8.47;;
2293;SDS011;1155;42.644;23.264;2023-05-10T07:09:11;11.37;;;8.30;;
2293;SDS011;1155;42.644;23.264;2023-05-10T07:11:40;12.83;;;9.37;;
2293;SDS011;1155;42.644;23.264;2023-05-10T07:14:07;9.57;;;7.40;;
2293;SDS011;1155;42.644;23.264;2023-05-10T07:16:37;8.90;;;8.00;;
2293;SDS011;1155;42.644;23.264;2023-05-10T07:19:04;10.60;;;9.20;;
2293;SDS011;1155;42.644;23.264;2023-05-10T07:21:31;10.23;;;7.90;;
2293;SDS011;1155;42.644;23.264;2023-05-10T07:23:58;8.23;;;7.20;;
2293;SDS011;1155;42.644;23.264;2023-05-10T07:26:26;11.50;;;8.53;;
2293;SDS011;1155;42.644;23.264;2023-05-10T07:28:57;9.17;;;7.50;;
2293;SDS011;1155;42.644;23.264;2023-05-10T07:31:24;7.93;;;7.13;;
2293;SDS011;1155;42.644;23.264;2023-05-10T07:33:51;9.37;;;8.10;;
2293;SDS011;1155;42.644;23.264;2023-05-10T07:36:17;9.37;;;7.67;;
2293;SDS011;1155;42.644;23.264;2023-05-10T07:38:44;8.90;;;8.00;;
2293;SDS011;1155;42.644;23.264;2023-05-10T07:41:12;15.50;;;8.20;;
2293;SDS011;1155;42.644;23.264;2023-05-10T07:43:38;11.47;;;7.77;;
2293;SDS011;1155;42.644;23.264;2023-05-10T07:46:07;10.73;;;9.10;;
2293;SDS011;1155;42.644;23.264;2023-05-10T07:48:36;10.07;;;8.43;;
2293;SDS011;1155;42.644;23.264;2023-05-10T07:51:03;11.07;;;8.47;;
2293;SDS011;1155;42.644;23.264;2023-05-10T07:53:31;13.47;;;8.37;;
2293;SDS011;1155;42.644;23.264;2023-05-10T07:55:58;9.77;;;8.77;;
2293;SDS011;1155;42.644;23.264;2023-05-10T07:58:27;10.17;;;8.00;;
2293;SDS011;1155;42.644;23.264;2023-05-10T08:00:54;11.97;;;8.50;;
2293;SDS011;1155;42.644;23.264;2023-05-10T08:03:23;10.83;;;8.17;;
2293;SDS011;1155;42.644;23.264;2023-05-10T08:05:50;11.10;;;9.00;;
2293;SDS011;1155;42.644;23.264;2023-05-10T08:08:16;9.33;;;8.03;;
2293;SDS011;1155;42.644;23.264;2023-05-10T08:10:44;10.80;;;9.70;;
2293;SDS011;1155;42.644;23.264;2023-05-10T08:13:10;9.63;;;8.63;;
2293;SDS011;1155;42.644;23.264;2023-05-10T08:15:42;8.30;;;7.40;;
2293;SDS011;1155;42.644;23.264;2023-05-10T08:18:18;16.27;;;9.70;;
2293;SDS011;1155;42.644;23.264;2023-05-10T08:20:46;12.40;;;8.40;;
2293;SDS011;1155;42.644;23.264;2023-05-10T08:23:13;13.97;;;9.57;;
2293;SDS011;1155;42.644;23.264;2023-05-10T08:25:40;9.93;;;8.93;;
2293;SDS011;1155;42.644;23.264;2023-05-10T08:28:07;9.93;;;8.90;;
2293;SDS011;1155;42.644;23.264;2023-05-10T08:30:34;11.83;;;8.80;;
2293;SDS011;1155;42.644;23.264;2023-05-10T08:33:01;14.80;;;8.63;;
2293;SDS011;1155;42.644;23.264;2023-05-10T08:35:29;9.67;;;8.67;;
2293;SDS011;1155;42.644;23.264;2023-05-10T08:37:58;9.93;;;8.90;;
2293;SDS011;1155;42.644;23.264;2023-05-10T08:40:30;13.10;;;8.30;;
2293;SDS011;1155;42.644;23.264;2023-05-10T08:43:08;9.90;;;8.20;;
2293;SDS011;1155;42.644;23.264;2023-05-10T08:45:41;11.07;;;9.07;;
2293;SDS011;1155;42.644;23.264;2023-05-10T08:48:10;9.60;;;8.50;;
2293;SDS011;1155;42.644;23.264;2023-05-10T08:50:39;10.30;;;8.37;;
2293;SDS011;1155;42.644;23.264;2023-05-10T08:53:10;9.10;;;8.03;;
2293;SDS011;1155;42.644;23.264;2023-05-10T08:55:45;9.53;;;8.27;;
2293;SDS011;1155;42.644;23.264;2023-05-10T08:58:13;9.97;;;8.03;;
2293;SDS011;1155;42.644;23.264;2023-05-10T09:00:41;10.97;;;8.70;;
2293;SDS011;1155;42.644;23.264;2023-05-10T09:03:08;9.73;;;7.60;;
2293;SDS011;1155;42.644;23.264;2023-05-10T09:05:36;9.07;;;8.17;;
2293;SDS011;1155;42.644;23.264;2023-05-10T09:08:03;9.07;;;8.20;;
2293;SDS011;1155;42.644;23.264;2023-05-10T09:10:32;10.47;;;8.50;;
2293;SDS011;1155;42.644;23.264;2023-05-10T09:12:59;9.47;;;8.40;;
2293;SDS011;1155;42.644;23.264;2023-05-10T09:15:28;8.80;;;7.90;;
2293;SDS011;1155;42.644;23.264;2023-05-10T09:17:55;10.10;;;9.20;;
2293;SDS011;1155;42.644;23.264;2023-05-10T09:20:27;11.07;;;9.83;;
2293;SDS011;1155;42.644;23.264;2023-05-10T09:22:54;8.60;;;7.70;;
2293;SDS011;1155;42.644;23.264;2023-05-10T09:25:21;10.03;;;8.97;;
2293;SDS011;1155;42.644;23.264;2023-05-10T09:27:49;10.30;;;7.73;;
2293;SDS011;1155;42.644;23.264;2023-05-10T09:30:17;9.53;;;8.73;;
2293;SDS011;1155;42.644;23.264;2023-05-10T09:32:51;9.70;;;8.43;;
2293;SDS011;1155;42.644;23.264;2023-05-10T09:35:19;14.50;;;8.67;;
2293;SDS011;1155;42.644;23.264;2023-05-10T09:37:48;8.40;;;7.60;;
2293;SDS011;1155;42.644;23.264;2023-05-10T09:40:16;11.47;;;8.97;;
2293;SDS011;1155;42.644;23.264;2023-05-10T09:42:55;9.23;;;8.30;;
2293;SDS011;1155;42.644;23.264;2023-05-10T09:45:23;11.83;;;7.70;;
2293;SDS011;1155;42.644;23.264;2023-05-10T09:47:51;8.47;;;7.63;;
2293;SDS011;1155;42.644;23.264;2023-05-10T09:50:19;8.60;;;7.67;;
2293;SDS011;1155;42.644;23.264;2023-05-10T09:52:47;32.30;;;11.83;;
2293;SDS011;1155;42.644;23.264;2023-05-10T09:55:15;10.00;;;9.03;;
2293;SDS011;1155;42.644;23.264;2023-05-10T09:57:43;12.17;;;9.80;;
2293;SDS011;1155;42.644;23.264;2023-05-10T10:00:16;10.17;;;9.17;;
2293;SDS011;1155;42.644;23.264;2023-05-10T10:02:45;11.17;;;7.57;;
2293;SDS011;1155;42.644;23.264;2023-05-10T10:05:13;10.43;;;8.40;;
2293;SDS011;1155;42.644;23.264;2023-05-10T10:07:41;9.00;;;7.50;;
2293;SDS011;1155;42.644;23.264;2023-05-10T10:10:08;9.40;;;8.47;;
2293;SDS011;1155;42.644;23.264;2023-05-10T10:12:38;9.67;;;8.67;;
2293;SDS011;1155;42.644;23.264;2023-05-10T10:15:07;8.57;;;7.77;;
2293;SDS011;1155;42.644;23.264;2023-05-10T10:17:36;9.63;;;8.70;;
2293;SDS011;1155;42.644;23.264;2023-05-10T10:20:05;8.90;;;7.87;;
2293;SDS011;1155;42.644;23.264;2023-05-10T10:22:34;11.80;;;8.93;;
2293;SDS011;1155;42.644;23.264;2023-05-10T10:25:07;10.57;;;8.80;;
2293;SDS011;1155;42.644;23.264;2023-05-10T10:27:37;15.53;;;8.40;;
2293;SDS011;1155;42.644;23.264;2023-05-10T10:30:14;9.80;;;8.70;;
2293;SDS011;1155;42.644;23.264;2023-05-10T10:32:54;11.00;;;8.93;;
2293;SDS011;1155;42.644;23.264;2023-05-10T10:35:34;9.97;;;8.73;;
2293;SDS011;1155;42.644;23.264;2023-05-10T10:38:08;9.93;;;9.03;;
2293;SDS011;1155;42.644;23.264;2023-05-10T10:40:35;10.00;;;8.83;;
2293;SDS011;1155;42.644;23.264;2023-05-10T10:43:21;10.07;;;8.63;;
2293;SDS011;1155;42.644;23.264;2023-05-10T10:48:47;26.30;;;17.80;;
2293;SDS011;1155;42.644;23.264;2023-05-10T10:51:17;15.10;;;12.83;;
2293;SDS011;1155;42.644;23.264;2023-05-10T10:53:45;9.40;;;8.50;;
2293;SDS011;1155;42.644;23.264;2023-05-10T10:56:14;10.13;;;9.10;;
2293;SDS011;1155;42.644;23.264;2023-05-10T10:58:41;11.80;;;10.60;;
2293;SDS011;1155;42.644;23.264;2023-05-10T11:01:16;20.10;;;16.60;;
2293;SDS011;1155;42.644;23.264;2023-05-10T11:06:46;12.40;;;11.13;;
2293;SDS011;1155;42.644;23.264;2023-05-10T11:09:13;10.40;;;9.40;;
2293;SDS011;1155;42.644;23.264;2023-05-10T11:11:50;9.30;;;8.40;;
2293;SDS011;1155;42.644;23.264;2023-05-10T11:14:20;11.27;;;10.07;;
2293;SDS011;1155;42.644;23.264;2023-05-10T11:16:48;10.77;;;8.50;;
2293;SDS011;1155;42.644;23.264;2023-05-10T11:19:17;13.00;;;8.30;;
2293;SDS011;1155;42.644;23.264;2023-05-10T11:21:45;9.20;;;8.30;;
2293;SDS011;1155;42.644;23.264;2023-05-10T11:24:19;9.60;;;8.73;;
2293;SDS011;1155;42.644;23.264;2023-05-10T11:26:47;8.70;;;7.80;;
2293;SDS011;1155;42.644;23.264;2023-05-10T11:29:16;9.57;;;8.57;;
2293;SDS011;1155;42.644;23.264;2023-05-10T11:31:43;10.33;;;8.40;;
2293;SDS011;1155;42.644;23.264;2023-05-10T11:34:12;10.07;;;8.10;;
2293;SDS011;1155;42.644;23.264;2023-05-10T11:36:51;10.07;;;7.97;;
2293;SDS011;1155;42.644;23.264;2023-05-10T11:39:19;12.87;;;9.30;;
2293;SDS011;1155;42.644;23.264;2023-05-10T11:41:48;10.47;;;8.30;;
2293;SDS011;1155;42.644;23.264;2023-05-10T11:44:18;9.40;;;8.40;;
2293;SDS011;1155;42.644;23.264;2023-05-10T11:46:45;10.03;;;8.53;;
2293;SDS011;1155;42.644;23.264;2023-05-10T11:49:14;12.13;;;10.83;;
2293;SDS011;1155;42.644;23.264;2023-05-10T11:51:41;9.00;;;8.20;;
2293;SDS011;1155;42.644;23.264;2023-05-10T11:54:10;11.77;;;7.87;;
2293;SDS011;1155;42.644;23.264;2023-05-10T11:56:40;9.53;;;8.60;;
2293;SDS011;1155;42.644;23.264;2023-05-10T11:59:07;9.33;;;8.43;;
2293;SDS011;1155;42.644;23.264;2023-05-10T12:01:34;9.70;;;7.70;;
2293;SDS011;1155;42.644;23.264;2023-05-10T12:04:02;11.63;;;8.80;;
2293;SDS011;1155;42.644;23.264;2023-05-10T12:06:31;10.77;;;8.23;;
2293;SDS011;1155;42.644;23.264;2023-05-10T12:09:01;9.73;;;8.30;;
2293;SDS011;1155;42.644;23.264;2023-05-10T12:11:37;9.37;;;8.30;;
2293;SDS011;1155;42.644;23.264;2023-05-10T12:14:08;8.80;;;7.90;;
2293;SDS011;1155;42.644;23.264;2023-05-10T12:16:35;11.30;;;7.70;;
2293;SDS011;1155;42.644;23.264;2023-05-10T12:19:02;9.73;;;8.93;;
2293;SDS011;1155;42.644;23.264;2023-05-10T12:21:30;10.40;;;7.20;;
2293;SDS011;1155;42.644;23.264;2023-05-10T12:23:59;10.30;;;8.03;;
2293;SDS011;1155;42.644;23.264;2023-05-10T12:26:27;10.53;;;8.07;;
2293;SDS011;1155;42.644;23.264;2023-05-10T12:29:11;9.90;;;8.60;;
2293;SDS011;1155;42.644;23.264;2023-05-10T12:31:48;9.73;;;8.17;;
2293;SDS011;1155;42.644;23.264;2023-05-10T12:34:22;10.20;;;9.10;;
2293;SDS011;1155;42.644;23.264;2023-05-10T12:36:54;10.13;;;9.07;;
2293;SDS011;1155;42.644;23.264;2023-05-10T12:39:21;12.70;;;9.40;;
2293;SDS011;1155;42.644;23.264;2023-05-10T12:41:48;12.90;;;10.83;;
2293;SDS011;1155;42.644;23.264;2023-05-10T12:44:28;11.80;;;10.27;;
2293;SDS011;1155;42.644;23.264;2023-05-10T12:46:55;16.03;;;9.60;;
2293;SDS011;1155;42.644;23.264;2023-05-10T12:49:22;10.70;;;8.67;;
2293;SDS011;1155;42.644;23.264;2023-05-10T12:51:49;12.93;;;10.20;;
2293;SDS011;1155;42.644;23.264;2023-05-10T12:54:15;12.77;;;8.90;;
2293;SDS011;1155;42.644;23.264;2023-05-10T12:56:42;11.90;;;9.30;;
2293;SDS011;1155;42.644;23.264;2023-05-10T12:59:09;11.70;;;8.20;;
2293;SDS011;1155;42.644;23.264;2023-05-10T13:01:37;12.00;;;9.50;;
2293;SDS011;1155;42.644;23.264;2023-05-10T13:04:04;11.70;;;9.13;;
2293;SDS011;1155;42.644;23.264;2023-05-10T13:06:33;13.80;;;9.97;;
2293;SDS011;1155;42.644;23.264;2023-05-10T13:09:00;13.70;;;9.17;;
2293;SDS011;1155;42.644;23.264;2023-05-10T13:11:27;13.70;;;11.17;;
2293;SDS011;1155;42.644;23.264;2023-05-10T13:13:54;14.73;;;9.80;;
2293;SDS011;1155;42.644;23.264;2023-05-10T13:16:21;10.87;;;8.87;;
2293;SDS011;1155;42.644;23.264;2023-05-10T13:18:49;14.20;;;10.40;;
2293;SDS011;1155;42.644;23.264;2023-05-10T13:21:16;13.50;;;9.90;;
2293;SDS011;1155;42.644;23.264;2023-05-10T13:23:43;9.57;;;8.50;;
2293;SDS011;1155;42.644;23.264;2023-05-10T13:26:09;11.77;;;9.27;;
2293;SDS011;1155;42.644;23.264;2023-05-10T13:28:36;9.60;;;8.10;;
2293;SDS011;1155;42.644;23.264;2023-05-10T13:31:03;12.37;;;11.07;;
2293;SDS011;1155;42.644;23.264;2023-05-10T13:33:31;15.43;;;9.00;;
2293;SDS011;1155;42.644;23.264;2023-05-10T13:35:59;10.43;;;8.30;;
2293;SDS011;1155;42.644;23.264;2023-05-10T13:38:26;15.83;;;8.97;;
2293;SDS011;1155;42.644;23.264;2023-05-10T13:40:52;12.20;;;8.97;;
2293;SDS011;1155;42.644;23.264;2023-05-10T13:43:19;9.07;;;8.13;;
2293;SDS011;1155;42.644;23.264;2023-05-10T13:45:46;12.80;;;8.00;;
2293;SDS011;1155;42.644;23.264;2023-05-10T13:48:13;10.20;;;8.90;;
2293;SDS011;1155;42.644;23.264;2023-05-10T13:50:41;17.27;;;7.00;;
2293;SDS011;1155;42.644;23.264;2023-05-10T13:53:09;12.67;;;8.10;;
2293;SDS011;1155;42.644;23.264;2023-05-10T13:59:01;12.90;;;9.10;;
2293;SDS011;1155;42.644;23.264;2023-05-10T14:01:28;16.77;;;9.47;;
2293;SDS011;1155;42.644;23.264;2023-05-10T14:03:55;9.73;;;7.73;;
2293;SDS011;1155;42.644;23.264;2023-05-10T14:06:22;15.60;;;8.57;;
2293;SDS011;1155;42.644;23.264;2023-05-10T14:08:50;11.50;;;9.90;;
2293;SDS011;1155;42.644;23.264;2023-05-10T14:11:20;10.80;;;8.63;;
2293;SDS011;1155;42.644;23.264;2023-05-10T14:13:47;9.53;;;7.83;;
2293;SDS011;1155;42.644;23.264;2023-05-10T14:16:13;11.00;;;9.80;;
2293;SDS011;1155;42.644;23.264;2023-05-10T14:18:40;9.47;;;8.57;;
2293;SDS011;1155;42.644;23.264;2023-05-10T14:21:07;9.80;;;7.63;;
2293;SDS011;1155;42.644;23.264;2023-05-10T14:23:34;9.53;;;8.20;;
2293;SDS011;1155;42.644;23.264;2023-05-10T14:26:03;10.23;;;7.80;;
2293;SDS011;1155;42.644;23.264;2023-05-10T14:28:30;11.60;;;9.47;;
2293;SDS011;1155;42.644;23.264;2023-05-10T14:30:59;9.33;;;8.03;;
2293;SDS011;1155;42.644;23.264;2023-05-10T14:33:26;10.03;;;8.43;;
2293;SDS011;1155;42.644;23.264;2023-05-10T14:35:53;10.10;;;9.00;;
2293;SDS011;1155;42.644;23.264;2023-05-10T14:38:21;9.07;;;7.70;;
2293;SDS011;1155;42.644;23.264;2023-05-10T14:43:17;11.17;;;8.83;;
2293;SDS011;1155;42.644;23.264;2023-05-10T14:45:44;9.83;;;8.70;;
2293;SDS011;1155;42.644;23.264;2023-05-10T14:48:12;13.30;;;9.40;;
2293;SDS011;1155;42.644;23.264;2023-05-10T14:50:41;12.00;;;8.60;;
2293;SDS011;1155;42.644;23.264;2023-05-10T14:56:06;11.60;;;9.80;;
2293;SDS011;1155;42.644;23.264;2023-05-10T14:58:34;11.67;;;8.60;;
2293;SDS011;1155;42.644;23.264;2023-05-10T15:01:01;9.97;;;8.60;;
2293;SDS011;1155;42.644;23.264;2023-05-10T15:03:31;10.93;;;8.10;;
2293;SDS011;1155;42.644;23.264;2023-05-10T15:06:00;10.97;;;8.83;;
2293;SDS011;1155;42.644;23.264;2023-05-10T15:08:27;10.80;;;7.87;;
2293;SDS011;1155;42.644;23.264;2023-05-10T15:10:54;9.47;;;8.50;;
2293;SDS011;1155;42.644;23.264;2023-05-10T15:13:21;11.87;;;9.07;;
2293;SDS011;1155;42.644;23.264;2023-05-10T15:15:50;11.20;;;9.40;;
2293;SDS011;1155;42.644;23.264;2023-05-10T15:18:33;9.60;;;7.73;;
2293;SDS011;1155;42.644;23.264;2023-05-10T15:21:06;12.93;;;9.10;;